sensor_id;sensor_type;location;lat;lon;timestamp;temperature;humidity
20337;DHT22;10326;53.660;10.200;2023-03-14T18:30:24;7.00;68.40
20337;DHT22;10326;53.660;10.200;2023-03-14T18:32:51;6.90;68.20
20337;DHT22;10326;53.660;10.200;2023-03-14T18:35:19;6.90;68.30
20337;DHT22;10326;53.660;10.200;2023-03-14T18:37:46;6.90;68.40
20337;DHT22;10326;53.660;10.200;2023-03-14T18:40:13;6.90;68.30
20337;DHT22;10326;53.660;10.200;2023-03-14T18:45:45;6.80;67.70
20337;DHT22;10326;53.660;10.200;2023-03-14T18:48:12;6.80;68.40
20337;DHT22;10326;53.660;10.200;2023-03-14T18:50:41;6.80;68.60
20337;DHT22;10326;53.660;10.200;2023-03-14T18:53:08;6.80;68.70
20337;DHT22;10326;53.660;10.200;2023-03-14T18:55:36;6.80;68.80
20337;DHT22;10326;53.660;10.200;2023-03-14T18:58:04;6.80;69.30
20337;DHT22;10326;53.660;10.200;2023-03-14T19:00:31;6.80;69.70
20337;DHT22;10326;53.660;10.200;2023-03-14T19:03:02;6.80;69.90
20337;DHT22;10326;53.660;10.200;2023-03-14T19:05:29;6.70;70.00
20337;DHT22;10326;53.660;10.200;2023-03-14T19:07:57;6.70;70.30
20337;DHT22;10326;53.660;10.200;2023-03-14T19:10:24;6.70;70.50
20337;DHT22;10326;53.660;10.200;2023-03-14T19:12:52;6.60;70.40
20337;DHT22;10326;53.660;10.200;2023-03-14T19:15:25;6.60;70.70
20337;DHT22;10326;53.660;10.200;2023-03-14T19:17:52;6.60;70.90
20337;DHT22;10326;53.660;10.200;2023-03-14T19:20:20;6.50;70.70
20337;DHT22;10326;53.660;10.200;2023-03-14T19:22:49;6.50;70.80
20337;DHT22;10326;53.660;10.200;2023-03-14T19:25:16;6.40;70.80
20337;DHT22;10326;53.660;10.200;2023-03-14T19:27:43;6.40;70.90
20337;DHT22;10326;53.660;10.200;2023-03-14T19:30:12;6.40;71.10
20337;DHT22;10326;53.660;10.200;2023-03-14T19:32:39;6.30;70.90
20337;DHT22;10326;53.660;10.200;2023-03-14T19:35:07;6.30;71.00
20337;DHT22;10326;53.660;10.200;2023-03-14T19:37:36;6.30;71.00
20337;DHT22;10326;53.660;10.200;2023-03-14T19:40:05;6.30;71.00
20337;DHT22;10326;53.660;10.200;2023-03-14T19:42:34;6.20;70.90
20337;DHT22;10326;53.660;10.200;2023-03-14T19:45:01;6.20;70.90
20337;DHT22;10326;53.660;10.200;2023-03-14T19:47:30;6.20;71.10
20337;DHT22;10326;53.660;10.200;2023-03-14T19:49:57;6.10;71.00
20337;DHT22;10326;53.660;10.200;2023-03-14T19:52:25;6.10;71.00
20337;DHT22;10326;53.660;10.200;2023-03-14T19:54:54;6.10;71.00
20337;DHT22;10326;53.660;10.200;2023-03-14T19:57:22;6.10;71.10
20337;DHT22;10326;53.660;10.200;2023-03-14T19:59:49;6.10;71.20
20337;DHT22;10326;53.660;10.200;2023-03-14T20:02:16;6.10;71.30
20337;DHT22;10326;53.660;10.200;2023-03-14T20:04:44;6.10;71.40
20337;DHT22;10326;53.660;10.200;2023-03-14T20:07:12;6.10;71.40
20337;DHT22;10326;53.660;10.200;2023-03-14T20:09:40;6.10;71.50
20337;DHT22;10326;53.660;10.200;2023-03-14T20:12:08;6.10;71.50
20337;DHT22;10326;53.660;10.200;2023-03-14T20:14:36;6.10;71.60
20337;DHT22;10326;53.660;10.200;2023-03-14T20:17:03;6.10;71.60
20337;DHT22;10326;53.660;10.200;2023-03-14T20:19:30;6.10;71.60
20337;DHT22;10326;53.660;10.200;2023-03-14T20:21:57;6.10;71.60
20337;DHT22;10326;53.660;10.200;2023-03-14T20:24:25;6.10;71.60
20337;DHT22;10326;53.660;10.200;2023-03-14T20:26:52;6.10;71.70
20337;DHT22;10326;53.660;10.200;2023-03-14T20:29:21;6.10;71.70
20337;DHT22;10326;53.660;10.200;2023-03-14T20:31:48;6.10;71.70
20337;DHT22;10326;53.660;10.200;2023-03-14T20:34:15;6.20;71.80
20337;DHT22;10326;53.660;10.200;2023-03-14T20:36:43;6.20;71.80
20337;DHT22;10326;53.660;10.200;2023-03-14T20:39:13;6.10;71.80
20337;DHT22;10326;53.660;10.200;2023-03-14T20:41:40;6.10;72.30
20337;DHT22;10326;53.660;10.200;2023-03-14T20:44:08;6.10;72.50
20337;DHT22;10326;53.660;10.200;2023-03-14T20:46:37;6.10;72.70
20337;DHT22;10326;53.660;10.200;2023-03-14T20:49:05;6.00;72.70
20337;DHT22;10326;53.660;10.200;2023-03-14T20:51:33;5.90;72.70
20337;DHT22;10326;53.660;10.200;2023-03-14T20:54:00;5.90;72.80
20337;DHT22;10326;53.660;10.200;2023-03-14T20:56:27;5.80;73.00
20337;DHT22;10326;53.660;10.200;2023-03-14T20:58:54;5.80;73.00
20337;DHT22;10326;53.660;10.200;2023-03-14T21:01:21;5.80;73.30
20337;DHT22;10326;53.660;10.200;2023-03-14T21:03:51;5.70;73.50
20337;DHT22;10326;53.660;10.200;2023-03-14T21:06:18;5.70;73.60
20337;DHT22;10326;53.660;10.200;2023-03-14T21:08:46;5.60;73.40
20337;DHT22;10326;53.660;10.200;2023-03-14T21:11:14;5.60;73.80
20337;DHT22;10326;53.660;10.200;2023-03-14T21:13:41;5.60;73.80
20337;DHT22;10326;53.660;10.200;2023-03-14T21:16:08;5.50;73.80
20337;DHT22;10326;53.660;10.200;2023-03-14T21:18:35;5.50;73.90
20337;DHT22;10326;53.660;10.200;2023-03-14T21:21:04;5.50;74.00
20337;DHT22;10326;53.660;10.200;2023-03-14T21:23:32;5.40;73.90
20337;DHT22;10326;53.660;10.200;2023-03-14T21:26:00;5.40;73.90
20337;DHT22;10326;53.660;10.200;2023-03-14T21:28:29;5.40;73.90
20337;DHT22;10326;53.660;10.200;2023-03-14T21:31:03;5.40;73.90
20337;DHT22;10326;53.660;10.200;2023-03-14T21:33:31;5.40;74.20
20337;DHT22;10326;53.660;10.200;2023-03-14T21:35:59;5.40;74.00
20337;DHT22;10326;53.660;10.200;2023-03-14T21:38:27;5.40;74.10
20337;DHT22;10326;53.660;10.200;2023-03-14T21:40:55;5.40;74.30
20337;DHT22;10326;53.660;10.200;2023-03-14T21:43:23;5.30;74.20
20337;DHT22;10326;53.660;10.200;2023-03-14T21:45:50;5.40;74.30
20337;DHT22;10326;53.660;10.200;2023-03-14T21:48:19;5.40;74.30
20337;DHT22;10326;53.660;10.200;2023-03-14T21:50:47;5.40;74.30
20337;DHT22;10326;53.660;10.200;2023-03-14T21:53:14;5.40;74.20
20337;DHT22;10326;53.660;10.200;2023-03-14T21:55:44;5.30;74.20
20337;DHT22;10326;53.660;10.200;2023-03-14T21:58:13;5.40;74.30
20337;DHT22;10326;53.660;10.200;2023-03-14T22:00:43;5.30;74.20
20337;DHT22;10326;53.660;10.200;2023-03-14T22:03:13;5.30;74.30
20337;DHT22;10326;53.660;10.200;2023-03-14T22:05:41;5.30;74.30
20337;DHT22;10326;53.660;10.200;2023-03-14T22:08:09;5.30;74.30
20337;DHT22;10326;53.660;10.200;2023-03-14T22:10:43;5.30;74.20
20337;DHT22;10326;53.660;10.200;2023-03-14T22:13:10;5.30;74.50
20337;DHT22;10326;53.660;10.200;2023-03-14T22:15:38;5.30;74.30
20337;DHT22;10326;53.660;10.200;2023-03-14T22:18:05;5.20;74.30
20337;DHT22;10326;53.660;10.200;2023-03-14T22:20:32;5.30;74.50
20337;DHT22;10326;53.660;10.200;2023-03-14T22:23:00;5.30;74.80
20337;DHT22;10326;53.660;10.200;2023-03-14T22:25:27;5.30;74.90
20337;DHT22;10326;53.660;10.200;2023-03-14T22:27:56;5.30;74.90
20337;DHT22;10326;53.660;10.200;2023-03-14T22:30:23;5.30;75.10
20337;DHT22;10326;53.660;10.200;2023-03-14T22:32:50;5.30;75.30
20337;DHT22;10326;53.660;10.200;2023-03-14T22:35:17;5.20;75.30
20337;DHT22;10326;53.660;10.200;2023-03-14T22:37:45;5.20;75.40
20337;DHT22;10326;53.660;10.200;2023-03-14T22:40:13;5.20;75.60
20337;DHT22;10326;53.660;10.200;2023-03-14T22:42:40;5.20;75.90
20337;DHT22;10326;53.660;10.200;2023-03-14T22:45:09;5.20;76.00
20337;DHT22;10326;53.660;10.200;2023-03-14T22:47:37;5.20;76.10
20337;DHT22;10326;53.660;10.200;2023-03-14T22:50:05;5.10;76.30
20337;DHT22;10326;53.660;10.200;2023-03-14T22:52:33;5.10;76.20
20337;DHT22;10326;53.660;10.200;2023-03-14T22:55:00;5.10;76.20
20337;DHT22;10326;53.660;10.200;2023-03-14T22:57:27;5.10;76.40
20337;DHT22;10326;53.660;10.200;2023-03-14T22:59:54;5.00;76.30
20337;DHT22;10326;53.660;10.200;2023-03-14T23:02:23;5.00;76.50
20337;DHT22;10326;53.660;10.200;2023-03-14T23:04:50;5.00;76.60
20337;DHT22;10326;53.660;10.200;2023-03-14T23:07:17;5.00;76.70
20337;DHT22;10326;53.660;10.200;2023-03-14T23:09:44;5.00;76.60
20337;DHT22;10326;53.660;10.200;2023-03-14T23:12:12;5.00;76.70
20337;DHT22;10326;53.660;10.200;2023-03-14T23:14:42;5.00;76.70
20337;DHT22;10326;53.660;10.200;2023-03-14T23:17:09;5.00;76.80
20337;DHT22;10326;53.660;10.200;2023-03-14T23:19:38;5.00;77.10
20337;DHT22;10326;53.660;10.200;2023-03-14T23:22:05;5.00;77.20
20337;DHT22;10326;53.660;10.200;2023-03-14T23:24:34;5.00;77.20
20337;DHT22;10326;53.660;10.200;2023-03-14T23:27:01;5.00;77.20
20337;DHT22;10326;53.660;10.200;2023-03-14T23:29:29;5.00;77.30
20337;DHT22;10326;53.660;10.200;2023-03-14T23:31:56;5.00;77.20
20337;DHT22;10326;53.660;10.200;2023-03-14T23:34:23;5.00;77.90
20337;DHT22;10326;53.660;10.200;2023-03-14T23:36:52;5.00;77.40
20337;DHT22;10326;53.660;10.200;2023-03-14T23:39:20;4.90;77.70
20337;DHT22;10326;53.660;10.200;2023-03-14T23:41:47;4.90;77.50
20337;DHT22;10326;53.660;10.200;2023-03-14T23:44:14;4.90;77.50
20337;DHT22;10326;53.660;10.200;2023-03-14T23:46:41;4.80;77.50
20337;DHT22;10326;53.660;10.200;2023-03-14T23:49:08;4.80;77.60
20337;DHT22;10326;53.660;10.200;2023-03-14T23:51:39;4.70;77.50
20337;DHT22;10326;53.660;10.200;2023-03-14T23:54:08;4.70;77.70
20337;DHT22;10326;53.660;10.200;2023-03-14T23:56:35;4.70;77.90
20337;DHT22;10326;53.660;10.200;2023-03-14T23:59:05;4.70;77.80
